createdAt,value
2023-05-25T00:01:35.379Z,0.30
2023-05-25T00:04:04.587Z,0.70
2023-05-25T00:06:33.084Z,0.20
2023-05-25T00:09:01.114Z,5.25
2023-05-25T00:11:29.189Z,1.20
2023-05-25T00:13:58.641Z,1.45
2023-05-25T00:16:26.658Z,0.20
2023-05-25T00:18:57.399Z,0.32
2023-05-25T00:21:26.267Z,0.73
2023-05-25T00:23:54.366Z,0.30
2023-05-25T00:26:22.353Z,1.15
2023-05-25T00:28:50.441Z,0.50
2023-05-25T00:31:19.967Z,1.15
2023-05-25T00:33:48.058Z,1.23
2023-05-25T00:36:16.055Z,0.50
2023-05-25T00:38:44.183Z,1.30
2023-05-25T00:41:12.184Z,0.68
2023-05-25T00:43:40.188Z,0.30
2023-05-25T00:46:08.541Z,0.32
2023-05-25T00:48:39.688Z,1.08
2023-05-25T00:51:08.353Z,0.30
2023-05-25T00:53:37.182Z,0.65
2023-05-25T00:56:10.959Z,0.93
2023-05-25T00:58:41.532Z,0.57
2023-05-25T01:01:12.188Z,0.60
2023-05-25T01:03:45.680Z,0.40
2023-05-25T01:06:17.089Z,0.40
2023-05-25T01:08:51.047Z,0.65
2023-05-25T01:11:23.457Z,0.73
2023-05-25T01:13:53.865Z,1.20
2023-05-25T01:16:22.155Z,0.50
2023-05-25T01:18:52.872Z,0.30
2023-05-25T01:21:27.126Z,3.97
2023-05-25T01:24:01.527Z,0.20
2023-05-25T01:26:33.924Z,0.30
2023-05-25T01:29:04.327Z,0.80
2023-05-25T01:31:34.592Z,0.40
2023-05-25T01:34:03.117Z,0.55
2023-05-25T01:36:33.189Z,0.47
2023-05-25T01:39:01.396Z,0.75
2023-05-25T01:41:29.422Z,1.38
2023-05-25T01:43:57.747Z,0.40
2023-05-25T01:46:33.855Z,0.35
2023-05-25T01:49:10.245Z,0.57
2023-05-25T01:51:45.146Z,0.65
2023-05-25T01:54:19.112Z,1.23
2023-05-25T01:56:49.874Z,1.42
2023-05-25T01:59:22.091Z,0.63
2023-05-25T02:01:52.874Z,0.30
2023-05-25T02:04:22.349Z,0.40
2023-05-25T02:06:52.975Z,0.93
2023-05-25T02:09:21.292Z,0.10
2023-05-25T02:11:49.816Z,0.73
2023-05-25T02:14:18.001Z,0.17
2023-05-25T02:16:46.948Z,2.40
2023-05-25T02:19:15.301Z,0.30
2023-05-25T02:21:43.552Z,0.67
2023-05-25T02:24:12.963Z,3.00
2023-05-25T02:26:41.032Z,0.60
2023-05-25T02:29:09.103Z,0.20
2023-05-25T02:31:37.984Z,0.47
2023-05-25T02:34:06.018Z,0.30
2023-05-25T02:36:34.858Z,1.23
2023-05-25T02:39:03.356Z,0.83
2023-05-25T02:41:32.681Z,0.70
2023-05-25T02:44:00.805Z,0.30
2023-05-25T02:46:28.821Z,0.80
2023-05-25T02:48:56.812Z,0.20
2023-05-25T02:51:24.782Z,4.70
2023-05-25T02:53:52.923Z,0.20
2023-05-25T02:56:21.705Z,0.50
2023-05-25T02:58:51.294Z,0.50
2023-05-25T03:01:19.473Z,0.60
2023-05-25T03:03:47.941Z,0.57
2023-05-25T03:06:16.113Z,0.50
2023-05-25T03:08:44.096Z,1.33
2023-05-25T03:11:12.132Z,0.50
2023-05-25T03:13:40.191Z,1.30
2023-05-25T03:16:09.764Z,0.20
2023-05-25T03:18:37.816Z,11.33
2023-05-25T03:21:06.234Z,0.37
2023-05-25T03:23:34.245Z,0.30
2023-05-25T03:26:02.342Z,0.37
2023-05-25T03:28:30.406Z,0.50
2023-05-25T03:30:58.417Z,1.23
2023-05-25T03:33:27.827Z,1.03
2023-05-25T03:35:55.932Z,0.90
2023-05-25T03:38:23.943Z,0.30
2023-05-25T03:40:52.033Z,0.30
2023-05-25T03:43:20.037Z,0.27
2023-05-25T03:45:48.164Z,0.53
2023-05-25T03:48:16.421Z,0.60
2023-05-25T03:50:45.768Z,0.63
2023-05-25T03:53:13.857Z,0.20
2023-05-25T03:55:41.975Z,0.20
2023-05-25T03:58:10.092Z,7.73
2023-05-25T04:00:38.201Z,0.13
2023-05-25T04:03:07.031Z,0.93
2023-05-25T04:05:35.176Z,0.50
2023-05-25T04:08:04.722Z,1.80
2023-05-25T04:10:32.749Z,0.30
2023-05-25T04:13:00.939Z,0.97
2023-05-25T04:15:28.977Z,0.13
2023-05-25T04:17:59.537Z,0.50
2023-05-25T04:20:27.701Z,0.83
2023-05-25T04:22:55.673Z,0.20
2023-05-25T04:25:27.955Z,0.67
2023-05-25T04:27:59.860Z,1.63
2023-05-25T04:30:28.421Z,0.30
2023-05-25T04:32:57.546Z,0.43
2023-05-25T04:35:26.906Z,0.57
2023-05-25T04:37:54.888Z,0.27
2023-05-25T04:40:24.330Z,0.27
2023-05-25T04:42:54.125Z,0.57
2023-05-25T04:45:24.090Z,0.30
2023-05-25T04:47:52.770Z,1.33
2023-05-25T04:50:21.204Z,1.13
2023-05-25T04:52:49.212Z,1.20
2023-05-25T04:55:17.413Z,0.20
2023-05-25T04:57:47.137Z,1.30
2023-05-25T05:00:16.803Z,1.77
2023-05-25T05:02:44.925Z,1.37
2023-05-25T05:05:12.987Z,3.83
2023-05-25T05:07:41.391Z,5.87
2023-05-25T05:10:10.190Z,0.20
2023-05-25T05:12:38.187Z,0.70
2023-05-25T05:15:08.793Z,1.23
2023-05-25T05:17:36.944Z,0.60
2023-05-25T05:20:08.659Z,0.20
2023-05-25T05:22:39.134Z,0.43
2023-05-25T05:25:08.336Z,0.30
2023-05-25T05:27:36.545Z,0.70
2023-05-25T05:30:04.977Z,1.30
2023-05-25T05:32:34.413Z,0.20
2023-05-25T05:35:02.627Z,0.57
2023-05-25T05:37:30.702Z,1.03
2023-05-25T05:39:58.776Z,1.03
2023-05-25T05:42:26.800Z,0.20
2023-05-25T05:44:54.857Z,0.60
2023-05-25T05:47:22.850Z,0.63
2023-05-25T05:49:52.213Z,0.40
2023-05-25T05:52:20.215Z,1.00
2023-05-25T05:54:48.204Z,0.87
2023-05-25T05:57:16.237Z,1.27
2023-05-25T05:59:44.291Z,1.10
2023-05-25T06:02:12.304Z,4.40
2023-05-25T06:04:40.473Z,0.50
2023-05-25T06:07:09.928Z,1.43
2023-05-25T06:09:37.958Z,0.60
2023-05-25T06:12:06.391Z,1.03
2023-05-25T06:14:34.436Z,1.77
2023-05-25T06:17:05.600Z,0.47
2023-05-25T06:19:33.729Z,1.00
2023-05-25T06:22:01.780Z,0.47
2023-05-25T06:24:31.536Z,0.27
2023-05-25T06:26:59.550Z,0.77
2023-05-25T06:29:27.582Z,1.30
2023-05-25T06:31:55.852Z,0.50
2023-05-25T06:34:24.145Z,0.70
2023-05-25T06:36:52.171Z,0.30
2023-05-25T06:39:20.269Z,0.30
2023-05-25T06:41:51.126Z,0.70
2023-05-25T06:44:19.450Z,2.43
2023-05-25T06:46:48.025Z,0.70
2023-05-25T06:49:16.132Z,0.97
2023-05-25T06:51:44.214Z,0.60
2023-05-25T06:54:14.935Z,2.63
2023-05-25T06:56:42.969Z,0.83
2023-05-25T06:59:12.331Z,0.77
2023-05-25T07:01:43.490Z,2.27
2023-05-25T07:04:11.733Z,0.60
2023-05-25T07:06:40.343Z,1.20
2023-05-25T07:09:08.391Z,0.67
2023-05-25T07:11:36.388Z,1.50
2023-05-25T07:14:04.434Z,0.30
2023-05-25T07:16:34.385Z,0.83
2023-05-25T07:19:02.726Z,0.60
2023-05-25T07:21:33.275Z,1.03
2023-05-25T07:24:01.851Z,1.23
2023-05-25T07:26:29.839Z,1.53
2023-05-25T07:28:57.885Z,1.70
2023-05-25T07:31:26.048Z,0.73
2023-05-25T07:33:56.259Z,0.77
2023-05-25T07:36:24.933Z,1.17
2023-05-25T07:38:53.054Z,2.83
2023-05-25T07:41:21.369Z,1.43
2023-05-25T07:43:49.353Z,1.10
2023-05-25T07:46:18.071Z,1.60
2023-05-25T07:48:46.153Z,4.03
2023-05-25T07:51:15.528Z,1.80
2023-05-25T07:53:43.594Z,0.57
2023-05-25T07:56:11.614Z,1.40
2023-05-25T07:58:39.616Z,1.15
2023-05-25T08:01:07.934Z,0.73
2023-05-25T08:03:49.163Z,0.98
2023-05-25T08:06:19.749Z,2.53
2023-05-25T08:08:47.946Z,2.93
2023-05-25T08:11:17.547Z,1.50
2023-05-25T08:13:45.747Z,32.53
2023-05-25T08:16:13.730Z,35.37
2023-05-25T08:18:44.259Z,12.65
2023-05-25T08:21:12.307Z,14.25
2023-05-25T08:23:42.506Z,4.10
2023-05-25T08:26:29.097Z,5.22
2023-05-25T08:28:59.542Z,2.90
2023-05-25T08:31:27.551Z,3.50
2023-05-25T08:33:55.629Z,4.03
2023-05-25T08:36:23.671Z,4.78
2023-05-25T08:38:53.273Z,4.63
2023-05-25T08:41:22.925Z,4.95
2023-05-25T08:43:51.380Z,4.90
2023-05-25T08:46:30.581Z,5.10
2023-05-25T08:49:04.815Z,6.45
2023-05-25T08:51:38.209Z,7.63
2023-05-25T08:54:13.287Z,8.38
2023-05-25T08:56:51.215Z,8.07
2023-05-25T08:59:32.414Z,9.43
2023-05-25T09:02:09.713Z,7.82
2023-05-25T09:04:38.415Z,9.00
2023-05-25T09:07:10.828Z,10.75
2023-05-25T09:09:42.373Z,10.65
2023-05-25T09:12:10.857Z,11.57
2023-05-25T09:14:45.543Z,12.68
2023-05-25T09:17:14.398Z,14.32
2023-05-25T09:19:42.548Z,15.27
2023-05-25T09:22:15.627Z,16.27
2023-05-25T09:24:46.697Z,17.70
2023-05-25T09:27:18.613Z,17.80
2023-05-25T09:29:48.574Z,20.95
2023-05-25T09:32:16.805Z,19.20
2023-05-25T09:34:45.095Z,18.77
2023-05-25T09:37:14.430Z,18.00
2023-05-25T09:39:43.775Z,24.58
2023-05-25T09:42:13.300Z,20.13
2023-05-25T09:44:43.209Z,17.48
2023-05-25T09:47:13.861Z,17.75
2023-05-25T09:49:44.452Z,20.75
2023-05-25T09:52:13.633Z,20.15
2023-05-25T09:54:44.785Z,23.35
2023-05-25T09:57:14.265Z,20.90
2023-05-25T09:59:43.179Z,21.95
2023-05-25T10:02:11.398Z,26.48
2023-05-25T10:04:39.814Z,24.77
2023-05-25T10:07:09.233Z,26.67
2023-05-25T10:09:41.766Z,26.83
2023-05-25T10:12:10.261Z,27.15
2023-05-25T10:14:40.124Z,29.65
2023-05-25T10:17:09.874Z,36.78
2023-05-25T10:19:41.478Z,42.33
2023-05-25T10:22:19.253Z,42.53
2023-05-25T10:24:54.875Z,53.38
2023-05-25T10:27:27.829Z,54.70
2023-05-25T10:29:59.375Z,65.35
2023-05-25T10:32:28.186Z,69.93
2023-05-25T10:34:57.951Z,69.25
2023-05-25T10:37:28.374Z,68.05
2023-05-25T10:39:58.471Z,73.72
2023-05-25T10:42:27.728Z,69.32
2023-05-25T10:44:59.484Z,69.00
2023-05-25T10:47:27.994Z,81.68
2023-05-25T10:49:57.990Z,80.57
2023-05-25T10:52:29.204Z,81.00
2023-05-25T10:54:58.111Z,82.38
2023-05-25T10:57:26.763Z,85.60
2023-05-25T11:00:00.010Z,98.95
2023-05-25T11:02:32.345Z,99.53
2023-05-25T11:05:32.460Z,91.25
2023-05-25T11:08:01.444Z,90.97
2023-05-25T11:10:52.947Z,91.78
2023-05-25T11:13:41.330Z,88.90
2023-05-25T11:16:20.456Z,88.18
2023-05-25T11:18:54.346Z,88.20
2023-05-25T11:21:43.672Z,88.32
2023-05-25T11:24:16.824Z,88.15
2023-05-25T11:26:56.631Z,75.25
2023-05-25T11:29:26.936Z,89.30
2023-05-25T11:31:56.739Z,86.72
2023-05-25T11:34:26.287Z,91.68
2023-05-25T11:37:01.909Z,91.90
2023-05-25T11:39:31.555Z,93.00
2023-05-25T11:42:05.116Z,96.03
2023-05-25T11:44:34.584Z,91.68
2023-05-25T11:47:08.910Z,90.43
2023-05-25T11:49:41.775Z,95.38
2023-05-25T11:52:10.513Z,100.63
2023-05-25T11:54:41.358Z,96.75
2023-05-25T11:57:16.376Z,91.95
2023-05-25T11:59:50.416Z,96.95
2023-05-25T12:02:18.520Z,103.03
2023-05-25T12:04:56.298Z,97.60
2023-05-25T12:07:25.130Z,93.40
2023-05-25T12:09:53.207Z,90.50
2023-05-25T12:12:21.359Z,86.90
2023-05-25T12:14:50.017Z,88.43
2023-05-25T12:17:18.985Z,88.13
2023-05-25T12:19:47.501Z,78.95
2023-05-25T12:22:17.618Z,88.70
2023-05-25T12:24:45.778Z,88.15
2023-05-25T12:27:23.949Z,77.80
2023-05-25T12:29:53.065Z,90.88
2023-05-25T12:32:21.374Z,73.32
2023-05-25T12:34:49.450Z,88.75
2023-05-25T12:37:23.456Z,91.38
2023-05-25T12:39:53.767Z,90.05
2023-05-25T12:42:21.748Z,86.20
2023-05-25T12:44:57.798Z,85.38
2023-05-25T12:47:28.646Z,87.38
2023-05-25T12:50:13.785Z,83.95
2023-05-25T12:52:44.436Z,87.97
2023-05-25T12:55:25.786Z,82.07
2023-05-25T12:57:54.147Z,89.95
2023-05-25T13:00:23.719Z,94.05
2023-05-25T13:02:52.379Z,90.70
2023-05-25T13:05:24.651Z,83.43
2023-05-25T13:07:55.334Z,87.38
2023-05-25T13:10:24.016Z,89.60
2023-05-25T13:12:54.047Z,84.07
2023-05-25T13:15:22.353Z,89.18
2023-05-25T13:17:51.571Z,96.32
2023-05-25T13:20:22.209Z,91.88
2023-05-25T13:22:51.273Z,92.78
2023-05-25T13:25:22.568Z,91.25
2023-05-25T13:27:52.610Z,86.35
2023-05-25T13:30:22.177Z,91.82
2023-05-25T13:32:51.844Z,89.43
2023-05-25T13:35:34.121Z,78.95
2023-05-25T13:38:02.243Z,78.00
2023-05-25T13:40:31.597Z,82.13
2023-05-25T13:42:59.606Z,83.55
2023-05-25T13:45:27.677Z,80.38
2023-05-25T13:47:55.783Z,82.97
2023-05-25T13:50:24.072Z,82.95
2023-05-25T13:52:52.149Z,89.38
2023-05-25T13:55:20.288Z,87.85
2023-05-25T13:57:49.746Z,81.45
2023-05-25T14:00:18.280Z,81.97
2023-05-25T14:02:46.326Z,84.35
2023-05-25T14:05:14.399Z,80.57
2023-05-25T14:07:42.679Z,79.22
2023-05-25T14:10:11.652Z,90.40
2023-05-25T14:12:39.783Z,86.53
2023-05-25T14:15:10.491Z,89.28
2023-05-25T14:17:38.611Z,87.82
2023-05-25T14:20:08.018Z,87.22
2023-05-25T14:22:36.102Z,84.78
2023-05-25T14:25:04.285Z,84.55
2023-05-25T14:27:32.306Z,93.30
2023-05-25T14:30:00.338Z,87.72
2023-05-25T14:32:29.797Z,93.75
2023-05-25T14:34:57.804Z,85.13
2023-05-25T14:37:25.865Z,80.15
2023-05-25T14:39:53.854Z,79.22
2023-05-25T14:42:21.867Z,94.70
2023-05-25T14:44:49.872Z,80.20
2023-05-25T14:47:17.992Z,79.95
2023-05-25T14:49:47.429Z,80.50
2023-05-25T14:52:15.444Z,85.45
2023-05-25T14:54:45.045Z,74.18
2023-05-25T14:57:13.216Z,75.78
2023-05-25T14:59:41.214Z,75.18
2023-05-25T15:02:09.450Z,92.05
2023-05-25T15:04:37.501Z,84.68
2023-05-25T15:07:06.965Z,73.15
2023-05-25T15:09:36.653Z,78.60
2023-05-25T15:12:04.967Z,89.40
2023-05-25T15:14:35.124Z,77.10
2023-05-25T15:17:03.120Z,76.00
2023-05-25T15:19:31.251Z,74.07
2023-05-25T15:21:59.263Z,82.60
2023-05-25T15:24:28.610Z,82.55
2023-05-25T15:26:56.800Z,81.75
2023-05-25T15:29:24.804Z,80.35
2023-05-25T15:31:53.734Z,22.70
2023-05-25T15:34:21.840Z,24.63
2023-05-25T15:36:49.828Z,24.83
2023-05-25T15:39:17.833Z,24.27
2023-05-25T15:41:47.234Z,25.58
2023-05-25T15:44:15.365Z,23.48
2023-05-25T15:46:43.596Z,25.27
2023-05-25T15:49:11.995Z,21.73
2023-05-25T15:51:41.717Z,24.50
2023-05-25T15:54:13.435Z,24.88
2023-05-25T15:56:42.317Z,24.00
2023-05-25T15:59:12.451Z,23.20
2023-05-25T16:01:40.851Z,25.08
2023-05-25T16:04:09.149Z,24.65
2023-05-25T16:06:38.376Z,25.77
2023-05-25T16:09:06.841Z,26.05
2023-05-25T16:11:34.857Z,25.38
2023-05-25T16:14:02.974Z,25.02
2023-05-25T16:16:32.545Z,24.88
2023-05-25T16:19:00.739Z,23.52
2023-05-25T16:21:28.783Z,23.65
2023-05-25T16:23:56.870Z,25.40
2023-05-25T16:26:24.977Z,24.40
2023-05-25T16:28:53.040Z,32.05
2023-05-25T16:31:21.057Z,25.23
2023-05-25T16:33:50.404Z,24.48
2023-05-25T16:36:18.566Z,25.48
2023-05-25T16:38:46.904Z,23.48
2023-05-25T16:41:14.999Z,24.77
2023-05-25T16:43:42.979Z,23.48
2023-05-25T16:46:11.576Z,22.98
2023-05-25T16:48:39.778Z,23.10
2023-05-25T16:51:14.938Z,23.45
2023-05-25T16:53:43.609Z,22.65
2023-05-25T16:56:11.772Z,22.65
2023-05-25T16:58:39.782Z,22.92
2023-05-25T17:01:07.878Z,24.75
2023-05-25T17:03:36.025Z,23.05
2023-05-25T17:06:04.122Z,24.58
2023-05-25T17:08:33.517Z,26.65
2023-05-25T17:11:01.525Z,22.73
2023-05-25T17:13:29.625Z,22.52
2023-05-25T17:15:57.708Z,23.08
2023-05-25T17:18:26.936Z,23.65
2023-05-25T17:20:55.209Z,22.52
2023-05-25T17:23:23.297Z,22.70
2023-05-25T17:25:52.704Z,22.95
2023-05-25T17:28:20.752Z,23.00
2023-05-25T17:30:48.909Z,23.15
2023-05-25T17:33:17.032Z,22.60
2023-05-25T17:35:45.328Z,22.80
2023-05-25T17:38:13.654Z,27.17
2023-05-25T17:40:41.728Z,22.40
2023-05-25T17:43:11.100Z,23.23
2023-05-25T17:45:39.079Z,21.92
2023-05-25T17:48:07.207Z,20.80
2023-05-25T17:50:35.205Z,23.20
2023-05-25T17:53:03.242Z,22.23
2023-05-25T17:55:31.261Z,21.90
2023-05-25T17:57:59.231Z,21.30
2023-05-25T18:00:30.373Z,21.20
2023-05-25T18:02:58.598Z,20.08
2023-05-25T18:05:26.724Z,20.48
2023-05-25T18:07:54.711Z,21.10
2023-05-25T18:10:22.755Z,20.83
2023-05-25T18:12:52.264Z,23.05
2023-05-25T18:15:20.528Z,19.98
2023-05-25T18:17:50.017Z,18.92
2023-05-25T18:20:18.229Z,18.27
2023-05-25T18:22:46.530Z,19.17
2023-05-25T18:25:14.629Z,19.83
2023-05-25T18:27:42.617Z,18.75
2023-05-25T18:30:11.738Z,19.27
2023-05-25T18:32:39.779Z,19.30
2023-05-25T18:35:10.126Z,17.20
2023-05-25T18:37:38.126Z,16.27
2023-05-25T18:40:07.299Z,16.20
2023-05-25T18:42:35.693Z,15.50
2023-05-25T18:45:03.833Z,14.38
2023-05-25T18:47:32.157Z,13.50
2023-05-25T18:50:00.230Z,14.13
2023-05-25T18:52:29.568Z,14.27
2023-05-25T18:54:57.525Z,13.10
2023-05-25T18:57:25.591Z,13.43
2023-05-25T18:59:53.600Z,13.38
2023-05-25T19:02:21.710Z,13.65
2023-05-25T19:04:49.792Z,11.52
2023-05-25T19:07:17.823Z,9.40
2023-05-25T19:09:48.169Z,8.10
2023-05-25T19:12:16.394Z,9.63
2023-05-25T19:14:45.640Z,8.15
2023-05-25T19:17:13.650Z,7.80
2023-05-25T19:19:41.669Z,7.05
2023-05-25T19:22:10.325Z,7.45
2023-05-25T19:24:42.431Z,7.72
2023-05-25T19:27:12.320Z,6.00
2023-05-25T19:29:40.428Z,5.68
2023-05-25T19:32:08.661Z,5.18
2023-05-25T19:34:36.979Z,5.50
2023-05-25T19:39:38.610Z,4.65
2023-05-25T19:42:06.856Z,3.83
2023-05-25T19:44:36.384Z,3.92
2023-05-25T19:47:04.367Z,3.67
2023-05-25T19:49:32.411Z,3.38
2023-05-25T19:52:00.451Z,3.65
2023-05-25T19:54:28.455Z,2.72
2023-05-25T19:56:56.494Z,3.70
2023-05-25T19:59:27.901Z,3.08
2023-05-25T20:01:57.632Z,2.40
2023-05-25T20:04:26.039Z,2.85
2023-05-25T20:06:54.513Z,1.90
2023-05-25T20:09:30.635Z,2.28
2023-05-25T20:11:59.100Z,2.00
2023-05-25T20:14:27.477Z,2.72
2023-05-25T20:16:56.956Z,1.63
2023-05-25T20:19:24.964Z,2.85
2023-05-25T20:21:52.989Z,2.63
2023-05-25T20:24:22.013Z,1.52
2023-05-25T20:26:50.987Z,3.85
2023-05-25T20:29:18.965Z,2.60
2023-05-25T20:31:47.058Z,1.83
2023-05-25T20:34:16.652Z,5.90
2023-05-25T20:36:44.656Z,1.45
2023-05-25T20:39:15.944Z,1.85
2023-05-25T20:41:44.035Z,3.13
2023-05-25T20:44:12.094Z,1.92
2023-05-25T20:46:40.181Z,3.70
2023-05-25T20:49:08.349Z,1.27
2023-05-25T20:51:37.724Z,0.75
2023-05-25T20:54:06.082Z,1.10
2023-05-25T20:56:34.132Z,4.15
2023-05-25T20:59:02.146Z,1.63
2023-05-25T21:01:30.673Z,2.38
2023-05-25T21:03:58.841Z,3.75
2023-05-25T21:06:27.453Z,10.80
2023-05-25T21:08:56.856Z,1.05
2023-05-25T21:11:26.184Z,1.80
2023-05-25T21:13:54.387Z,1.70
2023-05-25T21:16:22.558Z,3.17
2023-05-25T21:18:50.614Z,1.65
2023-05-25T21:21:18.658Z,1.08
2023-05-25T21:23:46.773Z,5.45
2023-05-25T21:26:16.142Z,3.88
2023-05-25T21:28:44.103Z,3.08
2023-05-25T21:31:14.141Z,3.88
2023-05-25T21:33:42.128Z,1.83
2023-05-25T21:36:10.293Z,1.42
2023-05-25T21:38:38.288Z,1.80
2023-05-25T21:41:06.722Z,1.27
2023-05-25T21:43:36.205Z,1.27
2023-05-25T21:46:04.281Z,0.60
2023-05-25T21:48:32.381Z,2.67
2023-05-25T21:51:00.401Z,0.68
2023-05-25T21:53:28.401Z,2.30
2023-05-25T21:55:56.429Z,1.38
2023-05-25T21:58:24.413Z,2.13
2023-05-25T22:00:53.806Z,2.20
2023-05-25T22:03:21.884Z,1.38
2023-05-25T22:05:49.944Z,1.35
2023-05-25T22:08:17.994Z,1.20
2023-05-25T22:10:46.003Z,0.80
2023-05-25T22:13:13.990Z,1.80
2023-05-25T22:15:42.083Z,3.22
2023-05-25T22:18:11.616Z,1.40
2023-05-25T22:20:41.667Z,0.88
2023-05-25T22:23:11.971Z,1.08
2023-05-25T22:25:39.964Z,2.38
2023-05-25T22:28:08.182Z,1.53
2023-05-25T22:30:36.406Z,2.85
2023-05-25T22:33:04.742Z,3.72
2023-05-25T22:35:34.246Z,5.43
2023-05-25T22:38:02.232Z,1.67
2023-05-25T22:40:30.248Z,5.87
2023-05-25T22:42:58.269Z,2.10
2023-05-25T22:45:26.301Z,1.45
2023-05-25T22:47:54.369Z,1.40
2023-05-25T22:50:22.470Z,1.58
2023-05-25T22:52:51.837Z,2.23
2023-05-25T22:55:19.840Z,1.92
2023-05-25T22:57:47.921Z,1.75
2023-05-25T23:00:16.159Z,1.98
2023-05-25T23:02:44.283Z,2.70
2023-05-25T23:05:12.408Z,1.48
2023-05-25T23:07:41.381Z,1.13
2023-05-25T23:10:11.873Z,1.23
2023-05-25T23:12:39.911Z,1.83
2023-05-25T23:15:09.520Z,21.98
2023-05-25T23:17:37.740Z,1.17
2023-05-25T23:20:07.731Z,0.82
2023-05-25T23:22:35.805Z,8.20
2023-05-25T23:25:03.871Z,2.30
2023-05-25T23:27:33.223Z,2.88
2023-05-25T23:30:02.143Z,2.47
2023-05-25T23:32:30.390Z,2.33
2023-05-25T23:34:58.415Z,1.27
2023-05-25T23:37:26.874Z,1.80
2023-05-25T23:39:54.901Z,1.25
2023-05-25T23:42:22.901Z,1.45
2023-05-25T23:44:52.258Z,2.22
2023-05-25T23:47:20.267Z,1.38
2023-05-25T23:49:48.334Z,2.92
2023-05-25T23:52:16.413Z,1.98
2023-05-25T23:54:44.409Z,1.05
2023-05-25T23:57:12.454Z,1.20
2023-05-25T23:59:40.609Z,2.20
